createdAt,value
2022-11-05T05:16:48.366Z,6.97
2022-11-05T05:19:15.800Z,7.50
2022-11-05T05:21:42.330Z,7.60
2022-11-05T05:24:14.886Z,5.07
2022-11-05T05:26:44.210Z,5.03
2022-11-05T05:29:11.287Z,4.35
2022-11-05T05:31:38.083Z,4.55
2022-11-05T05:34:05.466Z,3.50
2022-11-05T05:36:32.043Z,4.55
2022-11-05T05:38:58.504Z,3.88
2022-11-05T05:41:25.190Z,4.25
2022-11-05T05:43:51.644Z,4.35
2022-11-05T05:46:19.397Z,5.10
2022-11-05T05:48:50.439Z,4.85
2022-11-05T05:51:22.020Z,5.72
2022-11-05T05:53:48.488Z,5.63
2022-11-05T05:56:19.027Z,5.18
2022-11-05T05:58:45.499Z,5.55
2022-11-05T06:01:18.675Z,5.80
2022-11-05T06:03:46.185Z,5.13
2022-11-05T06:06:14.140Z,5.75
2022-11-05T06:08:41.401Z,5.82
2022-11-05T06:11:08.964Z,4.88
2022-11-05T06:13:36.308Z,4.55
2022-11-05T06:16:08.044Z,7.30
2022-11-05T06:18:35.228Z,6.28
2022-11-05T06:21:06.724Z,6.03
2022-11-05T06:23:35.325Z,5.13
2022-11-05T06:26:03.983Z,5.72
2022-11-05T06:28:31.177Z,6.60
2022-11-05T06:30:57.922Z,5.53
2022-11-05T06:33:24.416Z,4.97
2022-11-05T06:35:51.128Z,5.50
2022-11-05T06:38:17.658Z,6.63
2022-11-05T06:40:44.133Z,5.53
2022-11-05T06:43:10.973Z,5.93
2022-11-05T06:45:37.632Z,6.70
2022-11-05T06:48:04.435Z,5.25
2022-11-05T06:50:30.925Z,5.38
2022-11-05T06:53:01.854Z,6.10
2022-11-05T06:55:29.897Z,5.70
2022-11-05T06:57:57.197Z,6.15
2022-11-05T07:00:24.255Z,5.88
2022-11-05T07:02:50.819Z,6.97
2022-11-05T07:05:17.306Z,6.30
2022-11-05T07:07:45.332Z,6.93
2022-11-05T07:10:15.275Z,5.28
2022-11-05T07:12:41.944Z,5.80
2022-11-05T07:15:09.896Z,6.13
2022-11-05T07:17:36.447Z,5.20
2022-11-05T07:20:03.927Z,5.35
2022-11-05T07:22:30.389Z,6.22
2022-11-05T07:24:56.852Z,6.35
2022-11-05T07:27:23.375Z,5.63
2022-11-05T07:29:49.799Z,6.35
2022-11-05T07:32:16.208Z,5.80
2022-11-05T07:34:42.710Z,6.25
2022-11-05T07:37:09.151Z,6.50
2022-11-05T07:39:35.652Z,5.90
2022-11-05T07:42:02.238Z,6.72
2022-11-05T07:44:32.969Z,5.32
2022-11-05T07:46:59.397Z,7.10
2022-11-05T07:49:52.784Z,5.90
2022-11-05T07:52:19.192Z,6.13
2022-11-05T07:54:45.585Z,6.65
2022-11-05T07:57:12.009Z,5.65
2022-11-05T07:59:38.432Z,6.55
2022-11-05T08:02:05.271Z,6.35
2022-11-05T08:04:31.855Z,6.57
2022-11-05T08:06:58.312Z,6.30
2022-11-05T08:09:24.739Z,6.75
2022-11-05T08:11:53.023Z,6.13
2022-11-05T08:14:19.711Z,6.30
2022-11-05T08:16:46.321Z,5.55
2022-11-05T08:19:12.690Z,5.20
2022-11-05T08:21:39.201Z,5.03
2022-11-05T08:24:05.871Z,5.10
2022-11-05T08:26:32.319Z,5.47
2022-11-05T08:29:00.190Z,4.65
2022-11-05T08:31:27.661Z,4.35
2022-11-05T08:34:21.716Z,4.80
2022-11-05T08:36:48.206Z,4.72
2022-11-05T08:39:17.037Z,4.72
2022-11-05T08:41:43.674Z,4.07
2022-11-05T08:44:10.194Z,4.25
2022-11-05T08:46:41.404Z,3.80
2022-11-05T08:49:08.273Z,3.97
2022-11-05T08:51:36.757Z,4.60
2022-11-05T08:54:03.251Z,4.07
2022-11-05T08:56:29.650Z,3.97
2022-11-05T08:59:01.016Z,4.43
2022-11-05T09:01:27.583Z,4.00
2022-11-05T09:03:54.161Z,4.05
2022-11-05T09:06:20.705Z,4.28
2022-11-05T09:08:47.320Z,4.25
2022-11-05T09:11:13.966Z,5.05
2022-11-05T09:13:40.483Z,5.72
2022-11-05T09:16:13.359Z,5.75
2022-11-05T09:18:39.795Z,5.22
2022-11-05T09:21:06.211Z,5.28
2022-11-05T09:23:32.715Z,5.78
2022-11-05T09:25:59.121Z,6.03
2022-11-05T09:28:25.753Z,5.97
2022-11-05T09:30:52.870Z,6.28
2022-11-05T09:33:22.318Z,5.57
2022-11-05T09:35:49.043Z,6.45
2022-11-05T09:38:15.580Z,4.70
2022-11-05T09:41:03.178Z,5.13
2022-11-05T09:43:37.380Z,4.15
2022-11-05T09:46:13.960Z,6.53
2022-11-05T09:48:42.205Z,4.90
2022-11-05T09:51:17.978Z,4.80
2022-11-05T09:53:49.434Z,4.97
2022-11-05T09:56:29.132Z,5.32
2022-11-05T09:59:03.115Z,4.22
